sensor_id;sensor_type;location;lat;lon;timestamp;pressure;altitude;pressure_sealevel;temperature;humidity
4586;BME280;2305;50.118;8.952;2022-10-16T00:01:43;100332.63;;;15.98;100.00
4586;BME280;2305;50.118;8.952;2022-10-16T00:04:11;100325.63;;;15.97;100.00
4586;BME280;2305;50.118;8.952;2022-10-16T00:06:39;100333.44;;;15.99;100.00
4586;BME280;2305;50.118;8.952;2022-10-16T00:09:09;100335.59;;;15.95;100.00
4586;BME280;2305;50.118;8.952;2022-10-16T00:11:40;100337.09;;;15.98;100.00
4586;BME280;2305;50.118;8.952;2022-10-16T00:14:12;100335.63;;;16.03;100.00
4586;BME280;2305;50.118;8.952;2022-10-16T00:16:41;100327.50;;;16.05;100.00
4586;BME280;2305;50.118;8.952;2022-10-16T00:19:10;100326.66;;;16.04;100.00
4586;BME280;2305;50.118;8.952;2022-10-16T00:21:38;100316.88;;;16.05;100.00
4586;BME280;2305;50.118;8.952;2022-10-16T00:24:07;100309.91;;;16.04;100.00
4586;BME280;2305;50.118;8.952;2022-10-16T00:26:37;100318.06;;;16.10;100.00
4586;BME280;2305;50.118;8.952;2022-10-16T00:29:07;100308.59;;;16.16;100.00
4586;BME280;2305;50.118;8.952;2022-10-16T00:31:35;100307.78;;;16.23;100.00
4586;BME280;2305;50.118;8.952;2022-10-16T00:34:03;100306.66;;;16.26;100.00
4586;BME280;2305;50.118;8.952;2022-10-16T00:36:31;100325.41;;;16.24;100.00
4586;BME280;2305;50.118;8.952;2022-10-16T00:38:59;100334.16;;;16.09;100.00
4586;BME280;2305;50.118;8.952;2022-10-16T00:41:32;100330.59;;;15.92;100.00
4586;BME280;2305;50.118;8.952;2022-10-16T00:44:02;100335.22;;;15.90;100.00
4586;BME280;2305;50.118;8.952;2022-10-16T00:46:37;100329.09;;;15.90;100.00
4586;BME280;2305;50.118;8.952;2022-10-16T00:49:09;100331.38;;;15.85;100.00
4586;BME280;2305;50.118;8.952;2022-10-16T00:51:39;100342.69;;;15.87;100.00
4586;BME280;2305;50.118;8.952;2022-10-16T00:54:09;100338.88;;;15.89;100.00
4586;BME280;2305;50.118;8.952;2022-10-16T00:56:39;100330.91;;;15.89;100.00
4586;BME280;2305;50.118;8.952;2022-10-16T00:59:11;100338.38;;;15.86;100.00
4586;BME280;2305;50.118;8.952;2022-10-16T01:01:43;100342.53;;;15.88;100.00
4586;BME280;2305;50.118;8.952;2022-10-16T01:04:11;100341.72;;;15.88;100.00
4586;BME280;2305;50.118;8.952;2022-10-16T01:06:44;100342.91;;;15.93;100.00
4586;BME280;2305;50.118;8.952;2022-10-16T01:09:17;100343.06;;;15.92;100.00
4586;BME280;2305;50.118;8.952;2022-10-16T01:11:54;100340.09;;;15.95;100.00
4586;BME280;2305;50.118;8.952;2022-10-16T01:14:28;100344.94;;;15.99;100.00
4586;BME280;2305;50.118;8.952;2022-10-16T01:17:04;100346.59;;;16.00;100.00
4586;BME280;2305;50.118;8.952;2022-10-16T01:19:43;100344.59;;;16.02;100.00
4586;BME280;2305;50.118;8.952;2022-10-16T01:22:13;100346.25;;;16.03;100.00
4586;BME280;2305;50.118;8.952;2022-10-16T01:24:44;100354.59;;;16.08;100.00
4586;BME280;2305;50.118;8.952;2022-10-16T01:27:24;100367.75;;;16.10;100.00
4586;BME280;2305;50.118;8.952;2022-10-16T01:29:56;100364.38;;;16.08;100.00
4586;BME280;2305;50.118;8.952;2022-10-16T01:32:31;100364.38;;;16.08;100.00
4586;BME280;2305;50.118;8.952;2022-10-16T01:35:04;100368.72;;;16.09;100.00
4586;BME280;2305;50.118;8.952;2022-10-16T01:37:35;100380.69;;;16.13;100.00
4586;BME280;2305;50.118;8.952;2022-10-16T01:40:08;100379.56;;;16.15;100.00
4586;BME280;2305;50.118;8.952;2022-10-16T01:42:42;100374.25;;;16.15;100.00
4586;BME280;2305;50.118;8.952;2022-10-16T01:45:13;100380.06;;;16.19;100.00
4586;BME280;2305;50.118;8.952;2022-10-16T01:47:45;100365.94;;;16.18;100.00
4586;BME280;2305;50.118;8.952;2022-10-16T01:50:15;100359.81;;;16.18;100.00
4586;BME280;2305;50.118;8.952;2022-10-16T01:52:47;100353.16;;;16.22;100.00
4586;BME280;2305;50.118;8.952;2022-10-16T01:55:19;100359.47;;;16.21;100.00
4586;BME280;2305;50.118;8.952;2022-10-16T01:57:51;100345.19;;;16.22;100.00
4586;BME280;2305;50.118;8.952;2022-10-16T02:00:22;100342.00;;;16.18;100.00
4586;BME280;2305;50.118;8.952;2022-10-16T02:02:53;100345.81;;;16.16;100.00
4586;BME280;2305;50.118;8.952;2022-10-16T02:05:42;100355.47;;;16.17;100.00
4586;BME280;2305;50.118;8.952;2022-10-16T02:08:12;100365.13;;;16.18;100.00
4586;BME280;2305;50.118;8.952;2022-10-16T02:10:41;100368.78;;;16.17;100.00
4586;BME280;2305;50.118;8.952;2022-10-16T02:13:12;100376.06;;;16.15;100.00
4586;BME280;2305;50.118;8.952;2022-10-16T02:15:43;100373.09;;;16.18;100.00
4586;BME280;2305;50.118;8.952;2022-10-16T02:18:11;100382.22;;;16.15;100.00
4586;BME280;2305;50.118;8.952;2022-10-16T02:20:43;100381.69;;;16.12;100.00
4586;BME280;2305;50.118;8.952;2022-10-16T02:23:20;100376.38;;;16.12;100.00
4586;BME280;2305;50.118;8.952;2022-10-16T02:25:53;100377.06;;;16.14;100.00
4586;BME280;2305;50.118;8.952;2022-10-16T02:28:26;100381.84;;;16.10;100.00
4586;BME280;2305;50.118;8.952;2022-10-16T02:31:00;100388.69;;;16.13;100.00
4586;BME280;2305;50.118;8.952;2022-10-16T02:33:30;100391.19;;;16.14;100.00
4586;BME280;2305;50.118;8.952;2022-10-16T02:36:00;100395.66;;;16.14;100.00
4586;BME280;2305;50.118;8.952;2022-10-16T02:38:31;100378.03;;;16.13;100.00
4586;BME280;2305;50.118;8.952;2022-10-16T02:40:59;100378.53;;;16.08;100.00
4586;BME280;2305;50.118;8.952;2022-10-16T02:43:31;100383.31;;;16.05;100.00
4586;BME280;2305;50.118;8.952;2022-10-16T02:46:00;100383.84;;;16.08;100.00
4586;BME280;2305;50.118;8.952;2022-10-16T02:48:27;100375.72;;;16.10;100.00
4586;BME280;2305;50.118;8.952;2022-10-16T02:50:55;100380.34;;;16.08;100.00
4586;BME280;2305;50.118;8.952;2022-10-16T02:53:23;100370.56;;;16.08;100.00
4586;BME280;2305;50.118;8.952;2022-10-16T02:55:53;100375.34;;;16.05;100.00
4586;BME280;2305;50.118;8.952;2022-10-16T02:58:21;100384.00;;;16.07;100.00
4586;BME280;2305;50.118;8.952;2022-10-16T03:00:50;100384.50;;;16.10;100.00
4586;BME280;2305;50.118;8.952;2022-10-16T03:03:18;100388.00;;;16.11;100.00
4586;BME280;2305;50.118;8.952;2022-10-16T03:05:46;100396.66;;;16.13;100.00
4586;BME280;2305;50.118;8.952;2022-10-16T03:08:14;100387.69;;;16.14;100.00
4586;BME280;2305;50.118;8.952;2022-10-16T03:10:42;100394.66;;;16.15;100.00
4586;BME280;2305;50.118;8.952;2022-10-16T03:13:10;100384.72;;;16.17;100.00
4586;BME280;2305;50.118;8.952;2022-10-16T03:15:37;100395.38;;;16.17;100.00
4586;BME280;2305;50.118;8.952;2022-10-16T03:18:07;100395.50;;;16.15;100.00
4586;BME280;2305;50.118;8.952;2022-10-16T03:20:35;100406.00;;;16.17;100.00
4586;BME280;2305;50.118;8.952;2022-10-16T03:23:03;100400.50;;;16.18;100.00
4586;BME280;2305;50.118;8.952;2022-10-16T03:25:31;100410.63;;;16.15;100.00
4586;BME280;2305;50.118;8.952;2022-10-16T03:27:58;100410.94;;;16.12;100.00
4586;BME280;2305;50.118;8.952;2022-10-16T03:30:28;100412.75;;;16.11;100.00
4586;BME280;2305;50.118;8.952;2022-10-16T03:32:56;100421.44;;;16.13;100.00
4586;BME280;2305;50.118;8.952;2022-10-16T03:35:26;100409.63;;;16.16;100.00
4586;BME280;2305;50.118;8.952;2022-10-16T03:37:53;100403.50;;;16.15;100.00
4586;BME280;2305;50.118;8.952;2022-10-16T03:40:21;100416.94;;;16.14;100.00
4586;BME280;2305;50.118;8.952;2022-10-16T03:42:49;100422.91;;;16.16;100.00
4586;BME280;2305;50.118;8.952;2022-10-16T03:45:17;100421.25;;;16.15;100.00
4586;BME280;2305;50.118;8.952;2022-10-16T03:47:45;100422.09;;;16.15;100.00
4586;BME280;2305;50.118;8.952;2022-10-16T03:50:14;100417.59;;;16.16;100.00
4586;BME280;2305;50.118;8.952;2022-10-16T03:52:43;100416.63;;;16.17;100.00
4586;BME280;2305;50.118;8.952;2022-10-16T03:55:11;100414.78;;;16.17;100.00
4586;BME280;2305;50.118;8.952;2022-10-16T03:57:41;100417.44;;;16.17;100.00
4586;BME280;2305;50.118;8.952;2022-10-16T04:00:10;100415.63;;;16.18;100.00
4586;BME280;2305;50.118;8.952;2022-10-16T04:02:39;100414.13;;;16.15;100.00
4586;BME280;2305;50.118;8.952;2022-10-16T04:05:07;100428.72;;;16.11;100.00
4586;BME280;2305;50.118;8.952;2022-10-16T04:07:36;100437.69;;;16.10;100.00
4586;BME280;2305;50.118;8.952;2022-10-16T04:10:06;100435.69;;;16.12;100.00
4586;BME280;2305;50.118;8.952;2022-10-16T04:12:34;100438.19;;;16.14;100.00
4586;BME280;2305;50.118;8.952;2022-10-16T04:15:02;100438.19;;;16.14;100.00
4586;BME280;2305;50.118;8.952;2022-10-16T04:17:30;100438.19;;;16.14;100.00
4586;BME280;2305;50.118;8.952;2022-10-16T04:19:58;100423.38;;;16.11;100.00
4586;BME280;2305;50.118;8.952;2022-10-16T04:22:26;100425.72;;;16.06;100.00
4586;BME280;2305;50.118;8.952;2022-10-16T04:24:58;100419.69;;;16.04;100.00
4586;BME280;2305;50.118;8.952;2022-10-16T04:27:29;100435.97;;;16.01;100.00
4586;BME280;2305;50.118;8.952;2022-10-16T04:30:00;100446.94;;;15.98;100.00
4586;BME280;2305;50.118;8.952;2022-10-16T04:32:27;100456.38;;;16.01;100.00
4586;BME280;2305;50.118;8.952;2022-10-16T04:34:55;100456.25;;;16.02;100.00
4586;BME280;2305;50.118;8.952;2022-10-16T04:37:24;100449.94;;;16.03;100.00
4586;BME280;2305;50.118;8.952;2022-10-16T04:39:53;100452.59;;;16.03;100.00
4586;BME280;2305;50.118;8.952;2022-10-16T04:42:21;100456.25;;;16.02;100.00
4586;BME280;2305;50.118;8.952;2022-10-16T04:44:50;100459.41;;;16.06;100.00
4586;BME280;2305;50.118;8.952;2022-10-16T04:47:19;100462.75;;;16.08;100.00
4586;BME280;2305;50.118;8.952;2022-10-16T04:49:47;100457.28;;;16.09;100.00
4586;BME280;2305;50.118;8.952;2022-10-16T04:52:15;100451.81;;;16.11;100.00
4586;BME280;2305;50.118;8.952;2022-10-16T04:54:43;100444.00;;;16.09;100.00
4586;BME280;2305;50.118;8.952;2022-10-16T04:57:11;100443.00;;;16.10;100.00
4586;BME280;2305;50.118;8.952;2022-10-16T04:59:39;100451.81;;;16.11;100.00
4586;BME280;2305;50.118;8.952;2022-10-16T05:02:08;100449.81;;;16.13;100.00
4586;BME280;2305;50.118;8.952;2022-10-16T05:04:36;100451.50;;;16.14;100.00
4586;BME280;2305;50.118;8.952;2022-10-16T05:07:04;100450.50;;;16.15;100.00
4586;BME280;2305;50.118;8.952;2022-10-16T05:09:32;100445.19;;;16.15;100.00
4586;BME280;2305;50.118;8.952;2022-10-16T05:12:00;100444.19;;;16.16;100.00
4586;BME280;2305;50.118;8.952;2022-10-16T05:14:30;100452.16;;;16.16;100.00
4586;BME280;2305;50.118;8.952;2022-10-16T05:16:59;100445.88;;;16.17;100.00
4586;BME280;2305;50.118;8.952;2022-10-16T05:19:28;100450.34;;;16.16;100.00
4586;BME280;2305;50.118;8.952;2022-10-16T05:21:56;100448.00;;;16.13;100.00
4586;BME280;2305;50.118;8.952;2022-10-16T05:24:24;100445.19;;;16.15;100.00
4586;BME280;2305;50.118;8.952;2022-10-16T05:26:53;100448.69;;;16.15;100.00
4586;BME280;2305;50.118;8.952;2022-10-16T05:29:21;100459.16;;;16.17;100.00
4586;BME280;2305;50.118;8.952;2022-10-16T05:31:50;100465.78;;;16.13;100.00
4586;BME280;2305;50.118;8.952;2022-10-16T05:34:21;100458.47;;;16.15;100.00
4586;BME280;2305;50.118;8.952;2022-10-16T05:36:50;100459.47;;;16.14;100.00
4586;BME280;2305;50.118;8.952;2022-10-16T05:39:18;100453.16;;;16.15;100.00
4586;BME280;2305;50.118;8.952;2022-10-16T05:41:49;100466.63;;;16.13;100.00
4586;BME280;2305;50.118;8.952;2022-10-16T05:44:17;100474.28;;;16.16;100.00
4586;BME280;2305;50.118;8.952;2022-10-16T05:46:46;100477.78;;;16.17;100.00
4586;BME280;2305;50.118;8.952;2022-10-16T05:49:14;100468.81;;;16.18;100.00
4586;BME280;2305;50.118;8.952;2022-10-16T05:51:42;100473.13;;;16.19;100.00
4586;BME280;2305;50.118;8.952;2022-10-16T05:54:11;100472.13;;;16.20;100.00
4586;BME280;2305;50.118;8.952;2022-10-16T05:56:39;100465.00;;;16.20;100.00
4586;BME280;2305;50.118;8.952;2022-10-16T05:59:07;100456.84;;;16.22;100.00
4586;BME280;2305;50.118;8.952;2022-10-16T06:01:35;100450.72;;;16.21;100.00
4586;BME280;2305;50.118;8.952;2022-10-16T06:04:02;100463.16;;;16.21;100.00
4586;BME280;2305;50.118;8.952;2022-10-16T06:06:31;100477.13;;;16.23;100.00
4586;BME280;2305;50.118;8.952;2022-10-16T06:08:58;100479.63;;;16.24;100.00
4586;BME280;2305;50.118;8.952;2022-10-16T06:11:30;100489.28;;;16.25;100.00
4586;BME280;2305;50.118;8.952;2022-10-16T06:14:00;100496.25;;;16.26;100.00
4586;BME280;2305;50.118;8.952;2022-10-16T06:16:34;100499.63;;;16.28;100.00
4586;BME280;2305;50.118;8.952;2022-10-16T06:19:03;100495.97;;;16.29;100.00
4586;BME280;2305;50.118;8.952;2022-10-16T06:21:35;100497.47;;;16.32;100.00
4586;BME280;2305;50.118;8.952;2022-10-16T06:24:03;100504.75;;;16.30;100.00
4586;BME280;2305;50.118;8.952;2022-10-16T06:26:32;100501.94;;;16.31;100.00
4586;BME280;2305;50.118;8.952;2022-10-16T06:29:00;100508.13;;;16.32;100.00
4586;BME280;2305;50.118;8.952;2022-10-16T06:31:29;100525.59;;;16.34;100.00
4586;BME280;2305;50.118;8.952;2022-10-16T06:33:58;100525.59;;;16.34;100.00
4586;BME280;2305;50.118;8.952;2022-10-16T06:36:28;100522.56;;;16.29;100.00
4586;BME280;2305;50.118;8.952;2022-10-16T06:38:56;100522.94;;;16.34;100.00
4586;BME280;2305;50.118;8.952;2022-10-16T06:41:24;100523.50;;;16.38;100.00
4586;BME280;2305;50.118;8.952;2022-10-16T06:43:53;100526.16;;;16.38;100.00
4586;BME280;2305;50.118;8.952;2022-10-16T06:46:23;100529.63;;;16.38;100.00
4586;BME280;2305;50.118;8.952;2022-10-16T06:48:51;100523.50;;;16.38;100.00
4586;BME280;2305;50.118;8.952;2022-10-16T06:51:23;100518.00;;;16.39;100.00
4586;BME280;2305;50.118;8.952;2022-10-16T06:53:53;100513.72;;;16.46;100.00
4586;BME280;2305;50.118;8.952;2022-10-16T06:56:31;100521.22;;;16.51;100.00
4586;BME280;2305;50.118;8.952;2022-10-16T06:59:01;100522.56;;;16.55;100.00
4586;BME280;2305;50.118;8.952;2022-10-16T07:01:29;100525.91;;;16.57;100.00
4586;BME280;2305;50.118;8.952;2022-10-16T07:03:57;100531.44;;;16.63;100.00
4586;BME280;2305;50.118;8.952;2022-10-16T07:06:26;100513.16;;;16.68;100.00
4586;BME280;2305;50.118;8.952;2022-10-16T07:08:55;100516.66;;;16.69;100.00
4586;BME280;2305;50.118;8.952;2022-10-16T07:11:25;100518.19;;;16.71;100.00
4586;BME280;2305;50.118;8.952;2022-10-16T07:13:53;100529.84;;;16.78;100.00
4586;BME280;2305;50.118;8.952;2022-10-16T07:16:25;100524.19;;;16.81;100.00
4586;BME280;2305;50.118;8.952;2022-10-16T07:18:56;100536.88;;;16.87;100.00
4586;BME280;2305;50.118;8.952;2022-10-16T07:21:28;100542.88;;;16.89;100.00
4586;BME280;2305;50.118;8.952;2022-10-16T07:23:58;100543.91;;;16.96;100.00
4586;BME280;2305;50.118;8.952;2022-10-16T07:26:32;100547.06;;;17.00;100.00
4586;BME280;2305;50.118;8.952;2022-10-16T07:29:02;100553.09;;;17.02;100.00
4586;BME280;2305;50.118;8.952;2022-10-16T07:31:32;100553.41;;;17.07;100.00
4586;BME280;2305;50.118;8.952;2022-10-16T07:34:00;100555.97;;;17.16;100.00
4586;BME280;2305;50.118;8.952;2022-10-16T07:36:28;100558.13;;;17.21;100.00
4586;BME280;2305;50.118;8.952;2022-10-16T07:38:56;100558.97;;;17.21;100.00
4586;BME280;2305;50.118;8.952;2022-10-16T07:41:26;100563.97;;;17.24;100.00
4586;BME280;2305;50.118;8.952;2022-10-16T07:43:56;100573.31;;;17.28;100.00
4586;BME280;2305;50.118;8.952;2022-10-16T07:46:28;100575.50;;;17.33;100.00
4586;BME280;2305;50.118;8.952;2022-10-16T07:48:58;100599.97;;;17.36;100.00
4586;BME280;2305;50.118;8.952;2022-10-16T07:51:26;100592.69;;;17.38;100.00
4586;BME280;2305;50.118;8.952;2022-10-16T07:53:54;100592.38;;;17.41;100.00
4586;BME280;2305;50.118;8.952;2022-10-16T07:56:24;100589.75;;;17.49;100.00
4586;BME280;2305;50.118;8.952;2022-10-16T07:58:52;100594.22;;;17.57;100.00
4586;BME280;2305;50.118;8.952;2022-10-16T08:01:20;100598.56;;;17.58;100.00
4586;BME280;2305;50.118;8.952;2022-10-16T08:03:51;100600.94;;;17.61;100.00
4586;BME280;2305;50.118;8.952;2022-10-16T08:06:22;100593.44;;;17.64;100.00
4586;BME280;2305;50.118;8.952;2022-10-16T08:08:54;100598.94;;;17.71;100.00
4586;BME280;2305;50.118;8.952;2022-10-16T08:11:22;100598.63;;;17.74;100.00
4586;BME280;2305;50.118;8.952;2022-10-16T08:13:50;100604.63;;;17.76;100.00
4586;BME280;2305;50.118;8.952;2022-10-16T08:16:18;100602.97;;;17.75;100.00
4586;BME280;2305;50.118;8.952;2022-10-16T08:18:48;100614.78;;;17.80;100.00
4586;BME280;2305;50.118;8.952;2022-10-16T08:21:21;100617.94;;;17.76;100.00
4586;BME280;2305;50.118;8.952;2022-10-16T08:23:50;100622.63;;;17.82;100.00
4586;BME280;2305;50.118;8.952;2022-10-16T08:26:24;100633.44;;;17.72;100.00
4586;BME280;2305;50.118;8.952;2022-10-16T08:28:53;100632.56;;;17.64;100.00
4586;BME280;2305;50.118;8.952;2022-10-16T08:31:21;100638.91;;;17.63;100.00
4586;BME280;2305;50.118;8.952;2022-10-16T08:33:49;100639.56;;;17.65;100.00
4586;BME280;2305;50.118;8.952;2022-10-16T08:36:22;100646.91;;;17.63;100.00
4586;BME280;2305;50.118;8.952;2022-10-16T08:38:50;100651.22;;;17.64;100.00
4586;BME280;2305;50.118;8.952;2022-10-16T08:41:28;100668.56;;;17.68;100.00
4586;BME280;2305;50.118;8.952;2022-10-16T08:47:13;100662.06;;;17.62;100.00
4586;BME280;2305;50.118;8.952;2022-10-16T08:49:53;100666.41;;;17.63;100.00
4586;BME280;2305;50.118;8.952;2022-10-16T08:52:25;100679.50;;;17.57;100.00
4586;BME280;2305;50.118;8.952;2022-10-16T08:54:56;100676.84;;;17.57;100.00
4586;BME280;2305;50.118;8.952;2022-10-16T08:57:25;100675.81;;;17.50;100.00
4586;BME280;2305;50.118;8.952;2022-10-16T08:59:54;100681.84;;;17.52;100.00
4586;BME280;2305;50.118;8.952;2022-10-16T09:02:37;100687.03;;;17.61;100.00
4586;BME280;2305;50.118;8.952;2022-10-16T09:05:19;100683.38;;;17.62;100.00
4586;BME280;2305;50.118;8.952;2022-10-16T09:07:58;100685.91;;;17.72;100.00
4586;BME280;2305;50.118;8.952;2022-10-16T09:10:40;100700.59;;;17.76;100.00
4586;BME280;2305;50.118;8.952;2022-10-16T09:13:16;100703.25;;;17.76;100.00
4586;BME280;2305;50.118;8.952;2022-10-16T09:15:54;100707.22;;;17.72;100.00
4586;BME280;2305;50.118;8.952;2022-10-16T09:18:27;100696.25;;;17.75;100.00
4586;BME280;2305;50.118;8.952;2022-10-16T09:21:03;100700.25;;;17.79;100.00
4586;BME280;2305;50.118;8.952;2022-10-16T09:23:36;100699.94;;;17.82;100.00
4586;BME280;2305;50.118;8.952;2022-10-16T09:26:05;100708.31;;;17.87;100.00
4586;BME280;2305;50.118;8.952;2022-10-16T09:28:37;100714.47;;;17.95;100.00
4586;BME280;2305;50.118;8.952;2022-10-16T09:31:04;100712.16;;;18.00;100.00
4586;BME280;2305;50.118;8.952;2022-10-16T09:33:35;100729.50;;;18.04;100.00
4586;BME280;2305;50.118;8.952;2022-10-16T09:36:05;100725.34;;;18.10;100.00
4586;BME280;2305;50.118;8.952;2022-10-16T09:38:35;100725.38;;;18.18;100.00
4586;BME280;2305;50.118;8.952;2022-10-16T09:41:14;100725.22;;;18.27;100.00
4586;BME280;2305;50.118;8.952;2022-10-16T09:43:47;100732.94;;;18.38;100.00
4586;BME280;2305;50.118;8.952;2022-10-16T09:46:25;100724.63;;;18.49;100.00
4586;BME280;2305;50.118;8.952;2022-10-16T09:48:56;100727.13;;;18.59;100.00
4586;BME280;2305;50.118;8.952;2022-10-16T09:51:26;100728.94;;;18.58;100.00
4586;BME280;2305;50.118;8.952;2022-10-16T09:53:58;100738.13;;;18.64;100.00
4586;BME280;2305;50.118;8.952;2022-10-16T09:56:28;100740.78;;;18.72;100.00
4586;BME280;2305;50.118;8.952;2022-10-16T09:59:00;100732.31;;;18.76;100.00
4586;BME280;2305;50.118;8.952;2022-10-16T10:01:30;100748.81;;;18.64;100.00
4586;BME280;2305;50.118;8.952;2022-10-16T10:03:59;100744.31;;;18.56;100.00
4586;BME280;2305;50.118;8.952;2022-10-16T10:06:33;100746.13;;;18.56;100.00
4586;BME280;2305;50.118;8.952;2022-10-16T10:09:16;100742.81;;;18.62;100.00
4586;BME280;2305;50.118;8.952;2022-10-16T10:11:48;100748.50;;;18.67;100.00
4586;BME280;2305;50.118;8.952;2022-10-16T10:14:22;100751.00;;;18.76;100.00
4586;BME280;2305;50.118;8.952;2022-10-16T10:16:51;100741.47;;;18.82;100.00
4586;BME280;2305;50.118;8.952;2022-10-16T10:19:21;100741.13;;;18.92;100.00
4586;BME280;2305;50.118;8.952;2022-10-16T10:21:53;100754.00;;;19.05;100.00
4586;BME280;2305;50.118;8.952;2022-10-16T10:24:22;100748.47;;;19.14;100.00
4586;BME280;2305;50.118;8.952;2022-10-16T10:26:55;100755.81;;;19.28;100.00
4586;BME280;2305;50.118;8.952;2022-10-16T10:29:41;100759.16;;;19.30;100.00
4586;BME280;2305;50.118;8.952;2022-10-16T10:32:25;100749.63;;;19.28;100.00
4586;BME280;2305;50.118;8.952;2022-10-16T10:35:13;100741.47;;;19.29;100.00
4586;BME280;2305;50.118;8.952;2022-10-16T10:37:53;100730.91;;;19.36;100.00
4586;BME280;2305;50.118;8.952;2022-10-16T10:40:34;100734.72;;;19.41;100.00
4586;BME280;2305;50.118;8.952;2022-10-16T10:43:18;100728.19;;;19.52;100.00
4586;BME280;2305;50.118;8.952;2022-10-16T10:45:54;100736.03;;;19.53;100.00
4586;BME280;2305;50.118;8.952;2022-10-16T10:48:45;100735.34;;;19.59;100.00
4586;BME280;2305;50.118;8.952;2022-10-16T10:51:22;100728.81;;;19.62;100.00
4586;BME280;2305;50.118;8.952;2022-10-16T10:54:03;100736.50;;;19.65;100.00
4586;BME280;2305;50.118;8.952;2022-10-16T10:56:45;100728.81;;;19.62;100.00
4586;BME280;2305;50.118;8.952;2022-10-16T10:59:35;100726.47;;;19.59;100.00
4586;BME280;2305;50.118;8.952;2022-10-16T11:02:12;100724.13;;;19.64;100.00
4586;BME280;2305;50.118;8.952;2022-10-16T11:08:07;100724.69;;;19.90;100.00
4586;BME280;2305;50.118;8.952;2022-10-16T11:10:45;100726.47;;;20.05;100.00
4586;BME280;2305;50.118;8.952;2022-10-16T11:13:27;100720.94;;;20.07;100.00
4586;BME280;2305;50.118;8.952;2022-10-16T11:15:58;100719.41;;;20.04;100.00
4586;BME280;2305;50.118;8.952;2022-10-16T11:18:30;100711.38;;;20.04;100.00
4586;BME280;2305;50.118;8.952;2022-10-16T11:21:03;100705.59;;;19.93;100.00
4586;BME280;2305;50.118;8.952;2022-10-16T11:23:38;100713.84;;;19.83;100.00
4586;BME280;2305;50.118;8.952;2022-10-16T11:26:14;100720.25;;;19.74;100.00
4586;BME280;2305;50.118;8.952;2022-10-16T11:28:46;100718.09;;;19.70;100.00
4586;BME280;2305;50.118;8.952;2022-10-16T11:31:22;100720.91;;;19.76;100.00
4586;BME280;2305;50.118;8.952;2022-10-16T11:33:55;100724.75;;;19.74;100.00
4586;BME280;2305;50.118;8.952;2022-10-16T11:36:36;100716.06;;;19.72;100.00
4586;BME280;2305;50.118;8.952;2022-10-16T11:39:15;100722.41;;;19.79;100.00
4586;BME280;2305;50.118;8.952;2022-10-16T11:41:49;100719.47;;;19.96;100.00
4586;BME280;2305;50.118;8.952;2022-10-16T11:44:35;100711.63;;;20.25;100.00
4586;BME280;2305;50.118;8.952;2022-10-16T11:47:15;100721.44;;;20.55;100.00
4586;BME280;2305;50.118;8.952;2022-10-16T11:50:13;100714.28;;;20.93;100.00
4586;BME280;2305;50.118;8.952;2022-10-16T11:52:51;100707.88;;;21.16;100.00
4586;BME280;2305;50.118;8.952;2022-10-16T11:55:25;100700.97;;;21.36;100.00
4586;BME280;2305;50.118;8.952;2022-10-16T11:58:00;100705.56;;;21.57;100.00
4586;BME280;2305;50.118;8.952;2022-10-16T12:00:37;100707.31;;;21.50;100.00
4586;BME280;2305;50.118;8.952;2022-10-16T12:03:14;100714.44;;;21.86;100.00
4586;BME280;2305;50.118;8.952;2022-10-16T12:05:57;100707.66;;;21.90;100.00
4586;BME280;2305;50.118;8.952;2022-10-16T12:08:26;100704.06;;;21.83;100.00
4586;BME280;2305;50.118;8.952;2022-10-16T12:11:06;100700.16;;;22.00;100.00
4586;BME280;2305;50.118;8.952;2022-10-16T12:13:37;100705.53;;;22.00;100.00
4586;BME280;2305;50.118;8.952;2022-10-16T12:16:20;100701.19;;;21.99;100.00
4586;BME280;2305;50.118;8.952;2022-10-16T12:19:09;100697.78;;;21.76;100.00
4586;BME280;2305;50.118;8.952;2022-10-16T12:21:41;100700.78;;;21.67;100.00
4586;BME280;2305;50.118;8.952;2022-10-16T12:24:21;100703.03;;;21.99;100.00
4586;BME280;2305;50.118;8.952;2022-10-16T12:26:51;100706.63;;;21.91;100.00
4586;BME280;2305;50.118;8.952;2022-10-16T12:29:31;100699.72;;;21.97;100.00
4586;BME280;2305;50.118;8.952;2022-10-16T12:32:03;100697.09;;;22.03;100.00
4586;BME280;2305;50.118;8.952;2022-10-16T12:34:39;100698.25;;;22.15;100.00
4586;BME280;2305;50.118;8.952;2022-10-16T12:37:15;100685.66;;;22.16;100.00
4586;BME280;2305;50.118;8.952;2022-10-16T12:39:47;100699.59;;;22.05;100.00
4586;BME280;2305;50.118;8.952;2022-10-16T12:42:31;100704.56;;;22.08;100.00
4586;BME280;2305;50.118;8.952;2022-10-16T12:45:01;100704.00;;;22.12;100.00
4586;BME280;2305;50.118;8.952;2022-10-16T12:47:46;100698.31;;;22.22;100.00
4586;BME280;2305;50.118;8.952;2022-10-16T12:50:27;100705.69;;;22.13;100.00
4586;BME280;2305;50.118;8.952;2022-10-16T12:53:00;100715.81;;;21.97;100.00
4586;BME280;2305;50.118;8.952;2022-10-16T12:55:34;100719.25;;;21.76;100.00
4586;BME280;2305;50.118;8.952;2022-10-16T12:58:15;100716.91;;;21.88;100.00
4586;BME280;2305;50.118;8.952;2022-10-16T13:00:54;100714.09;;;22.10;100.00
4586;BME280;2305;50.118;8.952;2022-10-16T13:03:49;100722.19;;;22.46;100.00
4586;BME280;2305;50.118;8.952;2022-10-16T13:06:30;100715.38;;;22.50;100.00
4586;BME280;2305;50.118;8.952;2022-10-16T13:09:09;100715.38;;;22.71;100.00
4586;BME280;2305;50.118;8.952;2022-10-16T13:11:58;100714.91;;;22.88;100.00
4586;BME280;2305;50.118;8.952;2022-10-16T13:14:41;100713.72;;;22.97;100.00
4586;BME280;2305;50.118;8.952;2022-10-16T13:17:18;100714.88;;;23.09;100.00
4586;BME280;2305;50.118;8.952;2022-10-16T13:20:00;100722.69;;;23.04;100.00
4586;BME280;2305;50.118;8.952;2022-10-16T13:22:35;100708.94;;;22.93;100.00
4586;BME280;2305;50.118;8.952;2022-10-16T13:25:18;100718.63;;;22.87;100.00
4586;BME280;2305;50.118;8.952;2022-10-16T13:27:54;100719.03;;;22.63;100.00
4586;BME280;2305;50.118;8.952;2022-10-16T13:30:25;100726.41;;;22.40;100.00
4586;BME280;2305;50.118;8.952;2022-10-16T13:32:59;100728.19;;;22.33;100.00